Data for 02/26/2006

Time Sea-Level Adjusted Pressure Absolute Pressure Temperature Relative Humidity Dew Point   
(mb) (inHg) (mb) (inHg) (C) (F) (%) (C) (F)
00:05 1020 30.12 849 25.07 -0.3 31.5 49 -9.9 14.2
00:10 1020 30.12 849 25.07 -0.3 31.4 49 -9.9 14.2
00:15 1020 30.12 849 25.07 -0.4 31.3 50 -9.7 14.5
00:20 1020 30.12 849 25.07 -0.7 30.8 50 -9.7 14.5
00:25 1020 30.12 849 25.07 -0.8 30.5 50 -9.9 14.2
00:30 1020 30.12 849 25.07 -0.6 30.9 49 -10.1 13.8
00:35 1020 30.12 849 25.07 -0.3 31.4 48 -10.2 13.7
00:40 1020 30.12 849 25.07 -0.2 31.6 47 -10.2 13.7
00:45 1020 30.12 849 25.07 -0.2 31.6 47 -10.3 13.5
00:50 1020 30.12 849 25.07 -0.1 31.8 46 -10.3 13.5
00:55 1020 30.12 849 25.07 -0 32 46 -10.4 13.4
01:00 1020 30.12 849 25.07 0 32 46 -10.2 13.7
01:05 1020 30.12 849 25.07 -0.2 31.7 47 -10.3 13.5
01:10 1020 30.12 849 25.07 -0.1 31.8 47 -10.2 13.6
01:15 1020 30.12 849 25.07 -0.5 31.1 48 -10.1 13.8
01:20 1020 30.12 849 25.07 -0.7 30.7 48 -10.3 13.4
01:25 1020 30.12 849 25.07 -0.7 30.7 49 -10.2 13.7
01:30 1020 30.12 849 25.07 -0.6 30.9 49 -10 13.9
01:35 1020 30.12 849 25.07 -0.7 30.7 49 -10.1 13.9
01:40 1020 30.12 849 25.07 -0.8 30.5 50 -10.1 13.9
01:45 1020 30.12 849 25.07 -1 30.1 51 -10 14
01:50 1020 30.12 849 25.07 -1.2 29.8 51 -10 14
01:55 1020 30.12 849 25.07 -1.3 29.6 51 -10.3 13.5
02:00 1020 30.12 849 25.07 -1.2 29.8 50 -10.4 13.2
02:05 1020 30.12 849 25.07 -1.1 29.9 50 -10.2 13.6
02:10 1020 30.12 849 25.07 -1.6 29.1 51 -10.4 13.3
02:15 1020 30.12 849 25.07 -1.3 29.6 50 -10.5 13.1
02:20 1020 30.12 849 25.07 -1.1 29.9 49 -10.5 13.1
02:25 1020 30.12 849 25.07 -1.1 30 49 -10.4 13.2
02:30 1020 30.12 849 25.07 -1.3 29.7 50 -10.4 13.2
02:35 1020 30.12 849 25.07 -1.4 29.4 50 -10.4 13.2
02:40 1020 30.12 849 25.07 -1.5 29.2 50 -10.5 13
02:45 1020 30.12 849 25.07 -1.6 29.2 51 -10.4 13.2
02:50 1020 30.12 849 25.07 -1.4 29.5 50 -10.6 12.9
02:55 1020 30.12 849 25.07 -1.1 30 48 -10.9 12.3
03:00 1020 30.12 849 25.07 -0.9 30.4 47 -10.8 12.6
03:05 1019 30.09 849 25.07 -0.9 30.4 47 -10.7 12.7
03:10 1019 30.09 849 25.07 -1.1 30.1 48 -10.7 12.7
03:15 1019 30.09 849 25.07 -0.9 30.4 46 -11.1 12
03:20 1019 30.09 849 25.07 -0.8 30.5 47 -10.7 12.7
03:25 1019 30.09 849 25.07 -1.1 30 48 -10.9 12.4
03:30 1019 30.09 849 25.07 -1.3 29.7 48 -10.9 12.4
03:35 1019 30.09 849 25.07 -1.2 29.8 47 -11.1 12.1
03:40 1019 30.09 849 25.07 -1.3 29.6 49 -10.8 12.6
03:45 1019 30.09 849 25.07 -1.7 29 48 -11.2 11.9
03:50 1019 30.09 849 25.07 -1.6 29 50 -10.8 12.5
03:55 1019 30.09 849 25.07 -1.7 28.9 48 -11.4 11.5
04:00 1019 30.09 848 25.04 -1.5 29.4 48 -11 12.2
04:05 1019 30.09 848 25.04 -1.5 29.2 48 -11.2 11.8
04:10 1019 30.09 848 25.04 -1.4 29.5 48 -11 12.1
04:15 1019 30.09 848 25.04 -1.3 29.7 48 -11 12.1
04:20 1019 30.09 848 25.04 -1.6 29.2 49 -10.9 12.4
04:25 1019 30.09 848 25.04 -1.2 29.8 46 -11.4 11.4
04:30 1019 30.09 848 25.04 -1.1 30 48 -10.9 12.4
04:35 1019 30.09 848 25.04 -1.3 29.7 46 -11.4 11.5
04:40 1019 30.09 848 25.04 -0.5 31.1 45 -11.1 12.1
04:45 1019 30.09 848 25.04 -0 32 41 -11.8 10.7
04:50 1019 30.09 848 25.04 0.9 33.7 39 -11.7 11
04:55 1019 30.09 848 25.04 0.9 33.6 40 -11.2 11.8
05:00 1019 30.09 848 25.04 0.7 33.2 41 -11.2 11.9
05:05 1019 30.09 848 25.04 0.4 32.8 42 -11 12.2
05:10 1019 30.09 848 25.04 0.2 32.3 43 -11 12.2
05:15 1019 30.09 848 25.04 0.4 32.7 40 -11.7 10.9
05:20 1019 30.09 848 25.04 1 33.7 40 -11.2 11.8
05:25 1019 30.09 848 25.04 1.1 34 39 -11.4 11.5
05:30 1019 30.09 848 25.04 1.3 34.3 39 -11.2 11.9
05:35 1019 30.09 848 25.04 1.1 34 38 -11.5 11.2
05:40 1019 30.09 848 25.04 1.2 34.1 40 -10.9 12.3
05:45 1019 30.09 848 25.04 1 33.8 40 -11.3 11.7
05:50 1019 30.09 848 25.04 1.2 34.1 39 -11.3 11.7
05:55 1019 30.09 848 25.04 1.2 34.2 37 -11.8 10.8
06:00 1019 30.09 848 25.04 1.6 34.9 37 -11.6 11.1
06:05 1019 30.09 848 25.04 2 35.6 37 -11.2 11.8
06:10 1019 30.09 848 25.04 1.9 35.5 38 -11.1 12
06:15 1019 30.09 848 25.04 1.7 35 37 -11.5 11.3
06:20 1019 30.09 848 25.04 1.7 35 38 -11.2 11.8
06:25 1019 30.09 848 25.04 2 35.6 35 -11.8 10.8
06:30 1019 30.09 848 25.04 2.8 37.1 35 -11.1 11.9
06:35 1019 30.09 848 25.04 3.2 37.8 37 -10.2 13.7
06:40 1018 30.06 848 25.04 3.1 37.5 39 -9.7 14.6
06:45 1018 30.06 848 25.04 3.4 38.1 37 -10 14.1
06:50 1018 30.06 848 25.04 3.7 38.7 38 -9.5 14.9
06:55 1018 30.06 848 25.04 3.8 38.8 38 -9.3 15.2
07:00 1018 30.06 848 25.04 4.1 39.3 38 -9 15.8
07:05 1018 30.06 848 25.04 4 39.2 39 -8.8 16.2
07:10 1018 30.06 847 25.01 4.2 39.6 35 -9.9 14.1
07:15 1018 30.06 847 25.01 5.3 41.5 34 -9.4 15.1
07:20 1018 30.06 847 25.01 5.2 41.4 35 -8.9 15.9
07:25 1018 30.06 847 25.01 4.7 40.4 36 -9.1 15.7
07:30 1018 30.06 847 25.01 3.3 38 40 -8.9 15.9
07:35 1018 30.06 847 25.01 2.8 37 42 -9 15.9
07:40 1018 30.06 847 25.01 2.2 36 44 -8.9 15.9
07:45 1018 30.06 847 25.01 1.5 34.6 46 -8.9 16
07:50 1018 30.06 847 25.01 1.4 34.5 47 -8.8 16.1
07:55 1018 30.06 847 25.01 1.3 34.4 48 -8.7 16.4
08:00 1018 30.06 847 25.01 1.8 35.2 47 -8.3 17
08:05 1018 30.06 847 25.01 2.1 35.8 47 -7.9 17.7
08:10 1018 30.06 847 25.01 1.7 35 48 -8.2 17.2
08:15 1018 30.06 847 25.01 1.7 35.1 48 -8.3 17.1
08:20 1018 30.06 848 25.04 2 35.6 45 -8.6 16.5
08:25 1018 30.06 848 25.04 2.7 36.9 43 -8.6 16.5
08:30 1018 30.06 847 25.01 3.3 37.9 41 -8.8 16.1
08:35 1018 30.06 847 25.01 3.4 38.1 43 -8.1 17.5
08:40 1018 30.06 847 25.01 2.8 37.1 45 -8.1 17.5
08:45 1018 30.06 847 25.01 2.6 36.6 46 -8 17.6
08:50 1018 30.06 847 25.01 2.9 37.2 44 -8.1 17.4
08:55 1018 30.06 847 25.01 3 37.4 45 -7.8 18
09:00 1018 30.06 847 25.01 2.9 37.2 46 -7.7 18.2
09:05 1018 30.06 847 25.01 2.8 37 47 -7.3 18.8
09:10 1018 30.06 847 25.01 2.6 36.7 49 -7 19.4
09:15 1018 30.06 847 25.01 2.8 37.1 48 -7.1 19.2
09:20 1018 30.06 847 25.01 2.7 36.9 49 -7 19.5
09:25 1018 30.06 847 25.01 3 37.4 47 -7.3 18.8
09:30 1018 30.06 847 25.01 3.6 38.4 44 -7.6 18.3
09:35 1018 30.06 847 25.01 4.1 39.5 42 -7.6 18.4
09:40 1018 30.06 847 25.01 4.5 40.1 42 -7.3 18.9
09:45 1018 30.06 847 25.01 4.8 40.6 41 -7.3 18.9
09:50 1018 30.06 847 25.01 4.8 40.6 41 -7.3 18.8
09:55 1018 30.06 847 25.01 4.8 40.6 40 -7.7 18.1
10:00 1018 30.06 847 25.01 5 41 39 -7.9 17.9
10:05 1018 30.06 847 25.01 5 41.1 39 -7.7 18.2
10:10 1018 30.06 847 25.01 5 41.1 39 -7.9 17.9
10:15 1018 30.06 847 25.01 5.2 41.3 39 -7.7 18.1
10:20 1018 30.06 847 25.01 5.3 41.6 38 -7.9 17.9
10:25 1018 30.06 847 25.01 5.5 41.9 38 -7.8 18
10:30 1018 30.06 847 25.01 5.5 41.8 38 -7.7 18.1
10:35 1018 30.06 847 25.01 5.4 41.7 37 -8.2 17.3
10:40 1018 30.06 847 25.01 5.6 42 37 -8 17.6
10:45 1017 30.03 847 25.01 5.7 42.3 38 -7.6 18.3
10:50 1017 30.03 846 24.98 5.9 42.7 36 -8 17.6
10:55 1017 30.03 846 24.98 6.4 43.4 35 -8 17.7
11:00 1017 30.03 846 24.98 6.1 43 37 -7.6 18.3
11:05 1017 30.03 846 24.98 6.2 43.1 38 -7.2 19.1
11:10 1017 30.03 846 24.98 6 42.8 40 -6.6 20.1
11:15 1017 30.03 846 24.98 5.8 42.4 40 -6.9 19.6
11:20 1017 30.03 846 24.98 5.6 42 39 -7.2 19.1
11:25 1016 30 846 24.98 5.6 42.1 38 -7.7 18.1
11:30 1016 30 846 24.98 5.7 42.3 39 -7.1 19.2
11:35 1016 30 845 24.95 5.8 42.4 38 -7.4 18.7
11:40 1016 30 845 24.95 6 42.8 38 -7.1 19.2
11:45 1016 30 845 24.95 6.4 43.6 39 -6.5 20.3
11:50 1016 30 845 24.95 6.3 43.4 37 -7.3 18.8
11:55 1016 30 845 24.95 6.3 43.4 36 -7.6 18.3
12:00 1015 29.97 845 24.95 6.9 44.4 35 -7.4 18.6
12:05 1015 29.97 845 24.95 7.5 45.5 34 -7.3 18.8
12:10 1015 29.97 845 24.95 8.1 46.5 33 -7.2 19.1
12:15 1015 29.97 845 24.95 8.5 47.4 33 -6.9 19.7
12:20 1015 29.97 844 24.92 8.8 47.9 32 -7 19.5
12:25 1015 29.97 844 24.92 8.9 48 33 -6.7 19.9
12:30 1015 29.97 844 24.92 8.9 48 33 -6.4 20.5
12:35 1015 29.97 844 24.92 9.3 48.8 31 -6.8 19.7
12:40 1015 29.97 844 24.92 9.8 49.7 31 -6.5 20.3
12:45 1015 29.97 844 24.92 10.3 50.5 29 -6.8 19.8
12:50 1015 29.97 844 24.92 10.6 51 30 -6.3 20.7
12:55 1015 29.97 844 24.92 10.4 50.6 31 -6.1 21
13:00 1015 29.97 844 24.92 10.8 51.5 28 -6.9 19.5
13:05 1015 29.97 844 24.92 10.7 51.3 30 -6.2 20.8
13:10 1014 29.94 844 24.92 11.1 52 28 -6.5 20.2
13:15 1014 29.94 844 24.92 10.8 51.4 29 -6.7 19.9
13:20 1014 29.94 843 24.89 10.7 51.3 29 -6.7 20
13:25 1014 29.94 843 24.89 11 51.8 31 -5.5 22.1
13:30 1014 29.94 843 24.89 11.3 52.3 27 -7.1 19.1
13:35 1014 29.94 843 24.89 11.8 53.2 27 -6.4 20.5
13:40 1014 29.94 843 24.89 11.4 52.5 27 -7 19.4
13:45 1014 29.94 843 24.89 11.6 52.8 26 -7.3 18.9
13:50 1014 29.94 843 24.89 11.4 52.6 27 -6.7 19.9
13:55 1014 29.94 843 24.89 11.8 53.2 26 -7.1 19.1
14:00 1014 29.94 843 24.89 11.7 53.1 25 -7.9 17.8
14:05 1014 29.94 843 24.89 11.8 53.2 25 -7.8 18
14:10 1013 29.91 843 24.89 11.3 52.3 26 -7.5 18.4
14:15 1013 29.91 843 24.89 11.1 52 27 -7.4 18.7
14:20 1013 29.91 842 24.86 11.2 52.1 26 -7.5 18.6
14:25 1013 29.91 842 24.86 11.3 52.4 26 -7.3 18.8
14:30 1013 29.91 842 24.86 11.4 52.4 26 -7.3 18.9
14:35 1013 29.91 842 24.86 11.4 52.5 26 -7.5 18.5
14:40 1013 29.91 842 24.86 11.4 52.5 25 -7.9 17.7
14:45 1013 29.91 842 24.86 11.4 52.5 25 -7.8 17.9
14:50 1013 29.91 842 24.86 11.3 52.3 26 -7.6 18.3
14:55 1013 29.91 842 24.86 11.3 52.3 25 -8.2 17.3
15:00 1013 29.91 842 24.86 11.3 52.4 25 -8 17.5
15:05 1013 29.91 842 24.86 11.3 52.4 25 -8 17.6
15:10 1013 29.91 842 24.86 11.5 52.7 25 -7.8 17.9
15:15 1013 29.91 842 24.86 11.5 52.8 24 -8.1 17.4
15:20 1013 29.91 842 24.86 11.6 52.8 25 -8 17.6
15:25 1013 29.91 842 24.86 11.5 52.7 26 -7.6 18.3
15:30 1013 29.91 842 24.86 11.4 52.5 26 -7.6 18.4
15:35 1012 29.88 842 24.86 11.3 52.4 27 -7.2 19.1
15:40 1012 29.88 842 24.86 11.3 52.4 27 -6.9 19.5
15:45 1012 29.88 842 24.86 11.4 52.6 26 -7.2 19.1
15:50 1012 29.88 842 24.86 11.6 52.8 26 -7.3 18.9
15:55 1012 29.88 842 24.86 11.6 52.9 26 -7.3 18.9
16:00 1012 29.88 842 24.86 11.2 52.2 28 -6.7 20
16:05 1012 29.88 842 24.86 11.2 52.1 31 -5.5 22.1
16:10 1012 29.88 842 24.86 9.6 49.3 33 -5.9 21.3
16:15 1012 29.88 841 24.83 9.2 48.6 33 -6.4 20.5
16:20 1012 29.88 841 24.83 9.1 48.5 31 -7.1 19.3
16:25 1012 29.88 841 24.83 9.4 49 31 -6.7 20
16:30 1012 29.88 841 24.83 9.6 49.2 31 -6.6 20.1
16:35 1012 29.88 841 24.83 9.3 48.7 32 -6.8 19.8
16:40 1012 29.88 841 24.83 9.1 48.4 30 -7.6 18.4
16:45 1012 29.88 841 24.83 9.3 48.7 30 -7.6 18.3
16:50 1012 29.88 841 24.83 9.2 48.6 31 -7.1 19.3
16:55 1012 29.88 841 24.83 9.2 48.6 30 -7.4 18.7
17:00 1012 29.88 841 24.83 9.3 48.8 31 -6.8 19.7
17:05 1012 29.88 841 24.83 9.1 48.4 31 -7.1 19.2
17:10 1012 29.88 841 24.83 9 48.2 31 -7.1 19.2
17:15 1012 29.88 841 24.83 8.8 47.9 31 -7.5 18.5
17:20 1012 29.88 841 24.83 8.8 47.8 33 -6.8 19.7
17:25 1011 29.85 841 24.83 8.5 47.4 32 -7.2 19.1
17:30 1011 29.85 841 24.83 8.6 47.4 31 -7.8 18
17:35 1011 29.85 841 24.83 8.6 47.5 33 -6.8 19.7
17:40 1011 29.85 841 24.83 8.7 47.6 32 -7 19.4
17:45 1011 29.85 840 24.81 8.5 47.4 31 -7.4 18.6
17:50 1011 29.85 840 24.81 8.3 46.9 33 -6.9 19.7
17:55 1011 29.85 840 24.81 8.3 46.9 31 -7.9 17.8
18:00 1011 29.85 840 24.81 8.8 47.8 30 -7.8 17.9
18:05 1011 29.85 840 24.81 8.9 47.9 33 -6.7 19.9
18:10 1011 29.85 840 24.81 8.6 47.5 31 -7.5 18.5
18:15 1011 29.85 840 24.81 8.6 47.5 30 -7.9 17.7
18:20 1011 29.85 840 24.81 8.6 47.4 34 -6.4 20.5
18:25 1011 29.85 840 24.81 8.1 46.6 35 -6.3 20.7
18:30 1011 29.85 840 24.81 7.8 46.1 35 -6.7 20
18:35 1011 29.85 840 24.81 7.6 45.7 35 -6.8 19.7
18:40 1011 29.85 840 24.81 7.5 45.4 35 -6.9 19.6
18:45 1011 29.85 840 24.81 7.4 45.3 35 -7.2 19.1
18:50 1011 29.85 840 24.81 7.5 45.6 35 -6.9 19.6
18:55 1011 29.85 840 24.81 7.8 46 33 -7.6 18.3
19:00 1011 29.85 840 24.81 8.1 46.6 27 -10 14.1
19:05 1011 29.85 840 24.81 9.2 48.5 27 -9 15.8
19:10 1011 29.85 840 24.81 9.1 48.4 31 -7.2 19
19:15 1011 29.85 840 24.81 8.7 47.6 29 -8.6 16.6
19:20 1011 29.85 840 24.81 8.3 47 31 -8 17.6
19:25 1011 29.85 840 24.81 8.4 47.1 29 -8.5 16.8
19:30 1011 29.85 840 24.81 8.3 47 30 -8.3 17.1
19:35 1011 29.85 840 24.81 8.1 46.6 31 -8 17.6
19:40 1011 29.85 840 24.81 8.1 46.6 31 -7.8 17.9
19:45 1011 29.85 840 24.81 8.3 46.9 29 -8.9 16.1
19:50 1010 29.83 840 24.81 8.6 47.5 29 -8.3 17.1
19:55 1010 29.83 840 24.81 8.5 47.3 29 -8.4 17
20:00 1010 29.83 839 24.78 8.2 46.8 29 -8.7 16.3
20:05 1010 29.83 839 24.78 8.7 47.6 27 -9.1 15.6
20:10 1010 29.83 839 24.78 9 48.1 26 -9.6 14.7
20:15 1010 29.83 839 24.78 9.1 48.3 27 -8.8 16.2
20:20 1010 29.83 839 24.78 9 48.1 26 -9.4 15
20:25 1010 29.83 839 24.78 9 48.2 26 -9.3 15.3
20:30 1010 29.83 839 24.78 9 48.1 27 -9.2 15.5
20:35 1010 29.83 839 24.78 9 48.2 24 -10.3 13.4
20:40 1010 29.83 839 24.78 9.5 49.1 24 -9.9 14.1
20:45 1010 29.83 839 24.78 9.6 49.4 23 -10.6 13
20:50 1010 29.83 839 24.78 9.7 49.4 22 -11 12.2
20:55 1010 29.83 839 24.78 9.7 49.5 24 -10 14
21:00 1010 29.83 839 24.78 9.4 48.9 24 -10.1 13.9
21:05 1010 29.83 839 24.78 9.4 48.8 24 -10.4 13.3
21:10 1010 29.83 839 24.78 9.4 48.9 25 -9.9 14.2
21:15 1010 29.83 839 24.78 9.2 48.6 27 -9 15.8
21:20 1010 29.83 839 24.78 9.1 48.4 26 -9.4 15.1
21:25 1010 29.83 839 24.78 9.1 48.3 29 -8.2 17.2
21:30 1010 29.83 839 24.78 8.2 46.8 30 -8.3 17.1
21:35 1010 29.83 839 24.78 7.7 45.9 30 -8.6 16.6
21:40 1010 29.83 839 24.78 7.9 46.2 29 -9.2 15.5
21:45 1010 29.83 839 24.78 8.1 46.5 29 -8.8 16.1
21:50 1010 29.83 839 24.78 8 46.4 30 -8.5 16.7
21:55 1010 29.83 839 24.78 7.9 46.1 30 -8.8 16.1
22:00 1010 29.83 839 24.78 7.7 45.8 30 -8.7 16.4
22:05 1010 29.83 839 24.78 7.5 45.5 32 -8.3 17
22:10 1010 29.83 839 24.78 7.3 45.2 32 -8.3 17.1
22:15 1010 29.83 839 24.78 7.4 45.4 32 -8.3 17.1
22:20 1010 29.83 839 24.78 7.7 45.8 30 -8.6 16.4
22:25 1010 29.83 839 24.78 7.6 45.8 33 -7.6 18.2
22:30 1010 29.83 839 24.78 7.1 44.7 33 -8 17.6
22:35 1010 29.83 839 24.78 7 44.5 32 -8.5 16.8
22:40 1009 29.8 839 24.78 6.9 44.5 33 -8.4 16.8
22:45 1009 29.8 839 24.78 7 44.5 33 -8.3 17
22:50 1009 29.8 839 24.78 6.8 44.3 33 -8.2 17.2
22:55 1009 29.8 839 24.78 6.9 44.5 32 -8.6 16.5
23:00 1009 29.8 839 24.78 6.9 44.5 34 -8 17.5
23:05 1009 29.8 838 24.75 6.6 43.9 34 -8.1 17.4
23:10 1009 29.8 838 24.75 6.4 43.5 35 -7.9 17.8
23:15 1009 29.8 838 24.75 6.4 43.6 35 -7.8 18
23:20 1009 29.8 838 24.75 6.3 43.4 37 -7.5 18.6
23:25 1009 29.8 838 24.75 6.2 43.1 38 -7.2 19
23:30 1009 29.8 838 24.75 6 42.8 37 -7.5 18.5
23:35 1009 29.8 838 24.75 6.1 43 37 -7.6 18.3
23:40 1009 29.8 838 24.75 6.2 43.1 37 -7.5 18.4
23:45 1009 29.8 838 24.75 6.4 43.4 35 -8 17.5
23:50 1009 29.8 838 24.75 6.5 43.7 34 -8.4 16.9
23:55 1009 29.8 838 24.75 6.5 43.6 35 -8.1 17.5
24:00 1009 29.8 838 24.75 6.6 43.8 33 -8.7 16.3